Time;durP1;ratioP1;P1;durP2;ratioP2;P2;SDS_P1;SDS_P2;PMS_P1;PMS_P2;Temp;Humidity;BMP_temperature;BMP_pressure;BME280_temperature;BME280_humidity;BME280_pressure;Samples;Min_cycle;Max_cycle;Signal;HPM_P1;HPM_P2
2024/01/26 00:01:08;;;;;;;69.13;26.52;;;9.30;99.90;;;;;;4995371;28;20053;-82
2024/01/26 00:03:34;;;;;;;72.25;28.05;;;9.10;99.90;;;;;;4970515;28;20054;-83
2024/01/26 00:06:00;;;;;;;57.22;25.65;;;9.40;99.90;;;;;;5011204;28;20044;-82
2024/01/26 00:08:25;;;;;;;61.03;27.08;;;8.80;99.90;;;;;;5010830;28;20050;-82
2024/01/26 00:10:51;;;;;;;66.50;27.73;;;8.60;99.90;;;;;;4993509;28;20053;-80
2024/01/26 00:13:17;;;;;;;62.40;26.10;;;8.40;99.90;;;;;;4977253;28;20080;-82
2024/01/26 00:15:46;;;;;;;69.43;28.42;;;8.80;99.90;;;;;;4993865;28;20412;-80
2024/01/26 00:18:11;;;;;;;63.40;28.20;;;8.50;99.90;;;;;;4993498;28;20081;-82
2024/01/26 00:20:37;;;;;;;68.70;27.58;;;9.10;99.90;;;;;;5011224;28;20066;-81
2024/01/26 00:23:03;;;;;;;76.22;28.50;;;8.80;99.90;;;;;;5011352;28;20140;-81
2024/01/26 00:25:28;;;;;;;66.05;27.83;;;9.50;99.90;;;;;;4976489;28;20042;-82
2024/01/26 00:27:54;;;;;;;75.97;29.95;;;9.50;99.90;;;;;;5011134;28;20083;-82
2024/01/26 00:30:20;;;;;;;69.93;28.80;;;8.70;99.90;;;;;;5014847;28;20125;-81
2024/01/26 00:32:45;;;;;;;65.53;27.27;;;8.60;99.90;;;;;;4993271;28;20045;-82
2024/01/26 00:35:11;;;;;;;68.15;28.27;;;8.70;99.90;;;;;;5000740;28;20136;-83
2024/01/26 00:37:37;;;;;;;64.97;26.88;;;9.00;99.90;;;;;;5030652;28;20085;-82
2024/01/26 00:40:03;;;;;;;62.60;27.10;;;9.40;99.90;;;;;;5012662;28;20045;-81
2024/01/26 00:42:28;;;;;;;59.65;27.75;;;8.70;99.90;;;;;;5012719;28;20064;-82
2024/01/26 00:44:54;;;;;;;56.50;26.23;;;8.80;99.90;;;;;;5031877;28;20041;-83
2024/01/26 00:47:20;;;;;;;56.00;26.15;;;9.40;99.90;;;;;;5030524;28;20120;-82
2024/01/26 00:49:45;;;;;;;55.08;26.88;;;9.60;99.90;;;;;;5012700;28;20044;-83
2024/01/26 00:52:11;;;;;;;55.50;25.45;;;9.70;99.90;;;;;;5012914;28;20073;-82
2024/01/26 00:54:37;;;;;;;51.38;26.13;;;8.90;99.90;;;;;;5012935;28;20061;-82
2024/01/26 00:57:04;;;;;;;58.50;27.40;;;9.10;99.90;;;;;;5029170;28;20126;-82
2024/01/26 00:59:30;;;;;;;63.83;27.83;;;9.00;99.90;;;;;;5034214;28;20118;-82
2024/01/26 01:01:57;;;;;;;60.20;27.92;;;9.00;99.90;;;;;;5023457;28;20072;-82
2024/01/26 01:04:24;;;;;;;49.67;24.90;;;9.70;99.90;;;;;;5022280;28;20069;-82
2024/01/26 01:06:52;;;;;;;52.13;26.45;;;9.60;99.90;;;;;;5012814;28;20379;-82
2024/01/26 01:09:18;;;;;;;54.42;24.98;;;10.20;99.90;;;;;;5030204;28;20049;-82
2024/01/26 01:11:44;;;;;;;48.00;23.30;;;10.00;99.90;;;;;;5029792;28;20121;-82
2024/01/26 01:14:09;;;;;;;40.65;18.58;;;10.00;99.90;;;;;;5030370;28;20041;-82
2024/01/26 01:16:35;;;;;;;51.38;23.83;;;9.90;99.90;;;;;;5022031;28;20041;-82
2024/01/26 01:19:01;;;;;;;43.95;23.10;;;9.10;99.90;;;;;;5030252;28;20049;-82
2024/01/26 01:21:26;;;;;;;39.35;21.05;;;9.80;99.90;;;;;;5031343;28;20116;-82
2024/01/26 01:23:52;;;;;;;40.67;21.05;;;9.60;99.90;;;;;;5017615;28;20053;-83
2024/01/26 01:26:18;;;;;;;36.50;19.13;;;10.00;99.90;;;;;;5011829;28;20069;-83
2024/01/26 01:28:43;;;;;;;37.60;20.13;;;9.30;99.90;;;;;;5029250;28;20063;-82
2024/01/26 01:31:10;;;;;;;36.25;19.92;;;10.10;99.90;;;;;;5030521;28;20051;-82
2024/01/26 01:33:36;;;;;;;34.95;19.80;;;9.10;99.90;;;;;;4994096;28;20062;-82
2024/01/26 01:36:02;;;;;;;38.80;19.38;;;10.30;99.90;;;;;;5015605;28;20057;-82
2024/01/26 01:38:27;;;;;;;38.30;20.90;;;9.10;99.90;;;;;;4992620;28;20544;-82
2024/01/26 01:40:53;;;;;;;32.40;20.17;;;9.20;99.90;;;;;;5010201;28;20046;-83
2024/01/26 01:43:19;;;;;;;33.05;20.23;;;10.10;99.90;;;;;;4997840;28;20084;-82
2024/01/26 01:45:44;;;;;;;38.28;21.65;;;10.10;99.90;;;;;;4992364;28;20396;-82
2024/01/26 01:48:11;;;;;;;35.38;20.33;;;9.70;99.90;;;;;;4992669;28;20049;-82
2024/01/26 01:50:37;;;;;;;33.17;20.42;;;9.20;99.90;;;;;;4976468;28;20257;-83
2024/01/26 01:53:08;;;;;;;34.63;18.90;;;10.20;99.90;;;;;;5010796;28;20064;-81
2024/01/26 01:55:35;;;;;;;31.85;19.77;;;10.00;99.90;;;;;;5010160;28;20041;-82
2024/01/26 01:58:01;;;;;;;33.17;19.83;;;9.20;99.90;;;;;;4992417;28;20068;-84
2024/01/26 02:00:26;;;;;;;29.00;19.17;;;10.20;99.90;;;;;;5009651;28;20038;-82
2024/01/26 02:02:53;;;;;;;28.35;18.75;;;9.20;99.90;;;;;;5010318;28;20124;-82
2024/01/26 02:05:18;;;;;;;28.55;17.77;;;9.50;99.90;;;;;;4980358;28;20045;-83
2024/01/26 02:07:49;;;;;;;27.13;18.40;;;9.30;99.90;;;;;;4992341;28;20409;-84
2024/01/26 02:10:15;;;;;;;33.58;19.73;;;9.40;99.90;;;;;;5013612;28;20456;-83
2024/01/26 02:12:41;;;;;;;30.58;20.73;;;10.20;99.90;;;;;;4995729;28;20096;-81
2024/01/26 02:15:08;;;;;;;28.85;19.48;;;10.10;99.90;;;;;;4995533;28;20084;-82
2024/01/26 02:17:36;;;;;;;31.50;19.85;;;9.20;99.90;;;;;;5020438;28;20489;-82
2024/01/26 02:20:04;;;;;;;30.30;20.75;;;10.30;99.90;;;;;;4979525;28;20792;-83
2024/01/26 02:22:30;;;;;;;31.40;20.98;;;9.30;99.90;;;;;;4995730;28;20057;-84
2024/01/26 02:24:55;;;;;;;25.83;16.55;;;9.30;99.90;;;;;;4997029;28;20037;-82
2024/01/26 02:27:22;;;;;;;27.77;18.55;;;10.10;99.90;;;;;;5015419;28;20042;-83
2024/01/26 02:29:48;;;;;;;32.00;21.00;;;9.30;99.90;;;;;;4987447;28;20061;-82
2024/01/26 02:32:14;;;;;;;26.58;18.38;;;10.20;99.90;;;;;;4995146;28;20050;-83
2024/01/26 02:34:40;;;;;;;28.45;19.35;;;10.20;99.90;;;;;;4996836;28;20538;-83
2024/01/26 02:37:06;;;;;;;28.08;20.00;;;10.00;99.90;;;;;;5015894;28;20049;-82
2024/01/26 02:39:33;;;;;;;32.53;20.58;;;9.40;99.90;;;;;;4982633;28;20531;-82
2024/01/26 02:41:59;;;;;;;29.02;19.05;;;9.40;99.90;;;;;;5012812;28;20049;-82
2024/01/26 02:44:25;;;;;;;29.20;19.90;;;9.90;99.90;;;;;;5014237;28;20145;-84
2024/01/26 02:46:50;;;;;;;32.13;20.98;;;9.30;99.90;;;;;;4995148;28;20133;-83
2024/01/26 02:49:16;;;;;;;28.50;19.38;;;10.40;99.90;;;;;;4995409;28;20050;-82
2024/01/26 02:51:42;;;;;;;29.38;20.33;;;9.30;99.90;;;;;;5015823;28;20053;-82
2024/01/26 02:54:08;;;;;;;31.88;19.58;;;9.30;99.90;;;;;;5012786;28;20053;-82
2024/01/26 02:56:34;;;;;;;27.02;18.35;;;9.70;99.90;;;;;;4995069;28;20389;-83
2024/01/26 02:59:00;;;;;;;29.35;19.92;;;10.40;99.90;;;;;;5012546;28;20124;-83
2024/01/26 03:01:25;;;;;;;29.67;19.65;;;10.30;99.90;;;;;;5019724;28;20042;-82
2024/01/26 03:03:51;;;;;;;31.13;20.65;;;9.70;99.90;;;;;;5012602;28;20036;-82
2024/01/26 03:06:18;;;;;;;31.65;20.08;;;10.30;99.90;;;;;;5012580;28;20756;-83
2024/01/26 03:08:43;;;;;;;33.92;20.77;;;9.30;99.90;;;;;;5012760;28;20049;-82
2024/01/26 03:11:12;;;;;;;31.35;19.65;;;9.40;99.90;;;;;;4996355;28;20480;-83
2024/01/26 03:13:37;;;;;;;29.58;18.90;;;10.30;99.90;;;;;;5013363;28;20050;-82
2024/01/26 03:16:03;;;;;;;30.80;19.35;;;10.30;99.90;;;;;;5012520;28;20120;-81
2024/01/26 03:18:29;;;;;;;31.52;19.25;;;9.40;99.90;;;;;;4994699;28;20092;-81
2024/01/26 03:20:54;;;;;;;32.10;19.67;;;10.10;99.90;;;;;;4994180;28;20126;-83
2024/01/26 03:23:20;;;;;;;33.38;20.35;;;9.40;99.90;;;;;;5018051;28;20056;-82
2024/01/26 03:25:46;;;;;;;30.92;19.17;;;9.40;99.90;;;;;;4994599;28;20416;-82
2024/01/26 03:28:11;;;;;;;28.92;18.45;;;9.80;99.90;;;;;;5012165;28;20088;-83
2024/01/26 03:30:38;;;;;;;32.45;18.85;;;10.40;99.90;;;;;;4994476;28;20042;-83
2024/01/26 03:33:04;;;;;;;28.70;18.27;;;9.40;99.90;;;;;;5003501;28;20060;-81
2024/01/26 03:35:30;;;;;;;28.80;17.05;;;9.70;99.90;;;;;;5014267;28;20100;-81
2024/01/26 03:37:56;;;;;;;27.50;16.85;;;9.60;99.90;;;;;;4978042;28;20041;-82
2024/01/26 03:40:24;;;;;;;29.67;18.67;;;9.40;99.90;;;;;;5011953;28;20104;-82
2024/01/26 03:42:50;;;;;;;27.13;18.08;;;9.60;99.90;;;;;;4994383;28;20405;-81
2024/01/26 03:45:16;;;;;;;29.80;16.98;;;9.50;99.90;;;;;;4998104;28;20058;-82
2024/01/26 03:47:42;;;;;;;29.08;17.25;;;9.50;99.90;;;;;;4993995;28;20472;-83
2024/01/26 03:50:08;;;;;;;30.13;17.58;;;10.20;99.90;;;;;;5011667;28;20045;-82
2024/01/26 03:52:33;;;;;;;31.35;17.58;;;9.50;99.90;;;;;;5010620;28;20050;-82
2024/01/26 03:54:59;;;;;;;30.65;16.95;;;9.60;99.90;;;;;;5009041;28;20056;-82
2024/01/26 03:57:25;;;;;;;29.45;17.45;;;10.10;99.90;;;;;;5010197;28;20038;-81
2024/01/26 03:59:51;;;;;;;31.40;17.23;;;9.50;99.90;;;;;;5010340;28;20042;-83
2024/01/26 04:02:17;;;;;;;31.48;17.58;;;10.60;99.90;;;;;;5007012;28;20042;-81
2024/01/26 04:04:44;;;;;;;27.70;17.70;;;9.50;99.90;;;;;;4989780;28;20046;-82
2024/01/26 04:07:11;;;;;;;31.60;17.08;;;10.00;99.90;;;;;;4991870;28;20072;-82
2024/01/26 04:09:37;;;;;;;32.33;17.50;;;9.50;99.90;;;;;;5011398;28;20041;-82
2024/01/26 04:12:03;;;;;;;32.25;18.13;;;10.10;99.90;;;;;;4993882;28;20104;-80
2024/01/26 04:14:29;;;;;;;29.00;17.33;;;9.60;99.90;;;;;;4993786;28;20116;-83
2024/01/26 04:16:55;;;;;;;30.00;17.83;;;10.40;99.90;;;;;;5011276;28;20149;-82
2024/01/26 04:19:20;;;;;;;30.52;17.15;;;10.40;99.90;;;;;;5011331;28;20065;-82
2024/01/26 04:21:46;;;;;;;30.42;17.67;;;10.50;99.90;;;;;;5011061;28;20046;-83
2024/01/26 04:24:12;;;;;;;33.63;19.48;;;10.20;99.90;;;;;;4992874;28;20092;-83
2024/01/26 04:26:37;;;;;;;27.90;17.80;;;9.50;99.90;;;;;;5010993;28;20127;-84
2024/01/26 04:29:03;;;;;;;29.92;18.80;;;9.50;99.90;;;;;;5010874;28;20046;-83
2024/01/26 04:31:29;;;;;;;31.98;19.33;;;9.70;99.90;;;;;;5010108;28;20045;-82
2024/01/26 04:33:55;;;;;;;30.63;18.05;;;10.40;99.90;;;;;;5011058;28;20435;-83
2024/01/26 04:36:20;;;;;;;30.33;18.98;;;10.30;99.90;;;;;;5012769;28;20054;-83
2024/01/26 04:38:46;;;;;;;29.85;18.70;;;10.10;99.90;;;;;;4992859;28;20124;-82
2024/01/26 04:41:12;;;;;;;30.63;18.65;;;9.60;99.90;;;;;;5010973;28;20046;-82
2024/01/26 04:43:37;;;;;;;34.00;19.15;;;10.60;99.90;;;;;;4993242;28;20053;-82
2024/01/26 04:46:03;;;;;;;32.17;17.73;;;10.80;99.90;;;;;;5010672;28;20096;-83
2024/01/26 04:48:29;;;;;;;31.45;17.88;;;9.70;99.90;;;;;;5010620;28;20446;-80
2024/01/26 04:50:55;;;;;;;27.77;17.67;;;10.20;99.90;;;;;;5010907;28;20037;-81
2024/01/26 04:53:20;;;;;;;25.85;16.80;;;10.30;99.90;;;;;;5011007;28;20594;-79
2024/01/26 04:55:46;;;;;;;31.35;17.65;;;9.80;99.90;;;;;;4992610;28;20492;-80
2024/01/26 04:58:12;;;;;;;31.00;17.58;;;9.80;99.90;;;;;;4993304;28;20515;-83
2024/01/26 05:00:37;;;;;;;27.70;17.17;;;10.50;99.90;;;;;;4993100;28;20085;-81
2024/01/26 05:03:03;;;;;;;26.90;15.02;;;10.90;99.90;;;;;;4992945;28;20500;-82
2024/01/26 05:05:29;;;;;;;28.20;15.80;;;10.00;99.90;;;;;;5010899;28;20455;-84
2024/01/26 05:07:54;;;;;;;21.98;14.68;;;10.60;99.90;;;;;;5010844;28;20037;-85
2024/01/26 05:10:21;;;;;;;25.63;17.20;;;10.90;99.90;;;;;;4982732;28;20131;-85
2024/01/26 05:12:46;;;;;;;23.42;15.18;;;10.20;99.90;;;;;;5015788;28;20037;-84
2024/01/26 05:15:12;;;;;;;22.02;14.32;;;10.60;99.90;;;;;;4995376;28;20542;-83
2024/01/26 05:17:38;;;;;;;26.70;16.05;;;10.80;99.90;;;;;;5014157;28;20073;-82
2024/01/26 05:20:08;;;;;;;23.17;14.48;;;11.00;99.90;;;;;;5010555;28;20084;-81
2024/01/26 05:22:34;;;;;;;27.20;15.75;;;10.10;99.90;;;;;;5005451;28;20046;-83
2024/01/26 05:25:00;;;;;;;22.70;15.35;;;10.30;99.90;;;;;;5011598;28;20096;-82
2024/01/26 05:27:26;;;;;;;24.95;14.75;;;10.30;99.90;;;;;;4984539;28;20504;-82
2024/01/26 05:29:51;;;;;;;25.58;14.77;;;10.50;99.90;;;;;;5010597;28;20037;-82
2024/01/26 05:32:19;;;;;;;27.58;15.70;;;11.20;99.90;;;;;;5010456;28;20107;-83
2024/01/26 05:34:45;;;;;;;22.77;14.98;;;10.20;99.90;;;;;;5013263;28;20405;-83
2024/01/26 05:37:11;;;;;;;23.13;15.52;;;10.30;99.90;;;;;;5012048;28;20120;-82
2024/01/26 05:39:36;;;;;;;23.08;15.63;;;10.30;99.90;;;;;;4984269;28;20112;-83
2024/01/26 05:42:02;;;;;;;22.15;15.35;;;10.10;99.90;;;;;;4992850;28;20053;-81
2024/01/26 05:44:28;;;;;;;28.73;16.20;;;10.10;99.90;;;;;;5001521;28;20513;-81
2024/01/26 05:46:53;;;;;;;21.90;15.27;;;10.90;99.90;;;;;;5014237;28;20390;-81
2024/01/26 05:49:19;;;;;;;27.42;15.88;;;11.10;99.90;;;;;;5014469;28;20112;-83
2024/01/26 05:51:45;;;;;;;26.42;15.77;;;10.20;99.90;;;;;;5000400;28;20041;-83
2024/01/26 05:54:11;;;;;;;26.50;16.15;;;10.40;99.90;;;;;;5014469;28;20049;-82
2024/01/26 05:56:40;;;;;;;22.80;15.65;;;10.70;99.90;;;;;;5014467;28;20045;-84
2024/01/26 05:59:06;;;;;;;26.10;16.65;;;10.70;99.90;;;;;;5019508;28;20042;-83
2024/01/26 06:01:33;;;;;;;21.83;16.33;;;10.60;99.90;;;;;;5014264;28;20436;-86
2024/01/26 06:03:59;;;;;;;26.67;16.38;;;10.70;99.90;;;;;;5014308;28;20046;-83
2024/01/26 06:06:24;;;;;;;24.40;16.50;;;10.20;99.90;;;;;;5014231;28;20042;-81
2024/01/26 06:08:50;;;;;;;21.95;15.60;;;10.20;99.90;;;;;;5014048;28;20037;-81
2024/01/26 06:11:17;;;;;;;25.70;16.60;;;10.30;99.90;;;;;;5013837;28;20386;-82
2024/01/26 06:13:43;;;;;;;22.17;15.63;;;10.30;99.90;;;;;;5013603;28;20500;-82
2024/01/26 06:16:12;;;;;;;22.40;15.30;;;10.20;99.90;;;;;;4994976;28;20046;-80
2024/01/26 06:18:38;;;;;;;24.48;16.60;;;10.70;99.90;;;;;;4995662;28;20600;-84
2024/01/26 06:21:04;;;;;;;20.33;15.25;;;10.60;99.90;;;;;;5013384;28;20129;-82
2024/01/26 06:23:29;;;;;;;24.70;16.95;;;10.40;99.90;;;;;;4995790;28;20121;-83
2024/01/26 06:25:55;;;;;;;29.02;17.00;;;10.30;99.90;;;;;;4995560;28;20050;-82
2024/01/26 06:28:21;;;;;;;21.85;14.63;;;10.40;99.90;;;;;;4995716;28;20042;-81
2024/01/26 06:30:46;;;;;;;25.55;15.45;;;11.10;99.90;;;;;;4995158;28;20096;-83
2024/01/26 06:33:12;;;;;;;25.70;15.77;;;11.30;99.90;;;;;;5013129;28;20050;-81
2024/01/26 06:35:38;;;;;;;21.83;15.38;;;11.00;99.90;;;;;;4995498;28;20058;-81
2024/01/26 06:38:03;;;;;;;22.80;15.60;;;10.90;99.90;;;;;;5013471;28;20049;-82
2024/01/26 06:40:29;;;;;;;20.95;14.55;;;11.00;99.90;;;;;;4995163;28;20049;-82
2024/01/26 06:42:55;;;;;;;20.52;14.82;;;11.20;99.90;;;;;;5013179;28;20038;-83
2024/01/26 06:45:20;;;;;;;23.50;13.70;;;10.50;99.90;;;;;;4995459;28;20163;-83
2024/01/26 06:47:46;;;;;;;24.17;15.13;;;11.30;99.90;;;;;;5001599;28;20072;-83
2024/01/26 06:50:12;;;;;;;19.90;13.98;;;10.50;99.90;;;;;;5013053;28;20420;-81
2024/01/26 06:52:37;;;;;;;17.42;12.85;;;10.50;99.90;;;;;;4995175;28;20062;-84
2024/01/26 06:55:03;;;;;;;18.52;12.93;;;11.40;99.90;;;;;;5017513;28;20180;-84
2024/01/26 06:57:29;;;;;;;18.38;13.05;;;10.40;99.90;;;;;;4995447;28;20428;-82
2024/01/26 06:59:54;;;;;;;21.55;12.35;;;10.60;99.90;;;;;;5012764;28;20049;-81
2024/01/26 07:02:20;;;;;;;19.02;11.52;;;11.20;99.90;;;;;;4998595;28;20107;-84
2024/01/26 07:04:46;;;;;;;15.00;10.57;;;10.70;99.90;;;;;;5018200;28;20485;-83
2024/01/26 07:07:12;;;;;;;14.32;10.43;;;11.10;99.90;;;;;;5012977;28;20065;-84
2024/01/26 07:09:38;;;;;;;13.63;10.05;;;11.30;99.90;;;;;;5012705;28;20068;-83
2024/01/26 07:12:04;;;;;;;14.18;10.38;;;11.10;99.90;;;;;;5012828;28;20073;-83
2024/01/26 07:14:30;;;;;;;14.63;10.85;;;10.60;99.90;;;;;;4984514;28;20050;-84
2024/01/26 07:16:55;;;;;;;15.27;9.93;;;10.60;99.90;;;;;;5012399;28;20386;-82
2024/01/26 07:19:21;;;;;;;14.95;8.30;;;10.70;99.90;;;;;;4994158;28;20113;-83
2024/01/26 07:21:47;;;;;;;14.55;10.02;;;11.20;99.90;;;;;;4994632;28;20092;-83
2024/01/26 07:24:13;;;;;;;15.10;10.13;;;10.60;99.90;;;;;;4978659;28;20088;-85
2024/01/26 07:26:38;;;;;;;14.43;9.85;;;11.10;99.90;;;;;;5012243;28;20038;-84
2024/01/26 07:29:04;;;;;;;11.80;8.40;;;11.00;99.90;;;;;;5012170;28;20448;-82
2024/01/26 07:31:30;;;;;;;11.82;8.15;;;11.40;99.90;;;;;;4994688;28;20104;-82
2024/01/26 07:33:55;;;;;;;12.43;7.80;;;10.70;99.90;;;;;;4994232;28;20073;-84
2024/01/26 07:36:21;;;;;;;11.15;8.30;;;11.20;99.90;;;;;;5011455;28;20073;-84
2024/01/26 07:38:47;;;;;;;10.75;8.00;;;10.60;99.90;;;;;;5013005;28;20413;-84
2024/01/26 07:41:12;;;;;;;10.15;7.90;;;10.70;99.90;;;;;;4994520;28;20138;-84
2024/01/26 07:43:38;;;;;;;10.88;6.03;;;10.60;99.90;;;;;;4993259;28;20054;-84
2024/01/26 07:46:04;;;;;;;10.77;6.38;;;11.50;99.90;;;;;;5009471;28;20050;-83
2024/01/26 07:48:29;;;;;;;11.18;7.50;;;11.20;99.90;;;;;;4994462;28;20048;-84
2024/01/26 07:50:55;;;;;;;10.68;7.32;;;11.40;99.90;;;;;;5011455;28;20056;-84
2024/01/26 07:53:20;;;;;;;11.32;6.95;;;10.60;99.90;;;;;;5012172;28;20092;-84
2024/01/26 07:55:46;;;;;;;12.77;7.88;;;11.10;99.90;;;;;;5011887;28;20103;-83
2024/01/26 07:58:13;;;;;;;9.30;5.90;;;11.50;99.90;;;;;;4978576;28;20145;-84
2024/01/26 08:00:38;;;;;;;10.85;7.22;;;11.20;99.90;;;;;;5012050;28;20120;-80
2024/01/26 08:03:04;;;;;;;9.35;7.00;;;10.70;99.90;;;;;;4994609;28;20092;-82
2024/01/26 08:05:30;;;;;;;10.02;6.45;;;11.40;99.90;;;;;;4995223;28;20042;-82
2024/01/26 08:07:56;;;;;;;7.00;4.68;;;11.60;99.90;;;;;;5012748;28;20053;-83
2024/01/26 08:10:22;;;;;;;6.00;4.40;;;11.30;99.90;;;;;;4997548;28;20037;-83
2024/01/26 08:12:47;;;;;;;8.38;4.43;;;10.80;99.90;;;;;;5013896;28;20401;-83
2024/01/26 08:15:13;;;;;;;8.48;2.75;;;11.20;99.90;;;;;;5013995;28;20052;-85
2024/01/26 08:17:39;;;;;;;5.57;3.30;;;10.80;99.90;;;;;;4995275;28;20053;-90
2024/01/26 08:20:05;;;;;;;5.43;3.08;;;10.70;99.90;;;;;;5013100;28;20049;-88
2024/01/26 08:22:31;;;;;;;6.70;2.67;;;10.80;99.90;;;;;;4993029;28;20070;-86
2024/01/26 08:25:00;;;;;;;3.95;2.25;;;11.20;99.90;;;;;;5011905;28;20046;-85
2024/01/26 08:27:27;;;;;;;4.20;2.72;;;10.70;99.90;;;;;;4985666;28;20445;-83
2024/01/26 08:29:52;;;;;;;3.92;2.78;;;11.10;99.90;;;;;;5013317;28;20516;-83
2024/01/26 08:32:18;;;;;;;5.57;3.33;;;11.50;99.90;;;;;;4993306;28;20046;-84
2024/01/26 08:34:44;;;;;;;3.83;2.63;;;11.20;99.90;;;;;;5015662;28;20433;-82
2024/01/26 08:37:11;;;;;;;6.03;3.60;;;10.80;99.90;;;;;;4994748;28;20058;-84
2024/01/26 08:39:37;;;;;;;5.47;3.50;;;10.70;99.90;;;;;;5008096;28;20460;-85
2024/01/26 08:42:04;;;;;;;8.27;3.90;;;10.70;99.90;;;;;;5011082;28;20049;-84
2024/01/26 08:44:32;;;;;;;9.73;4.97;;;10.70;99.90;;;;;;5014537;28;20037;-84
2024/01/26 08:46:58;;;;;;;10.48;6.47;;;11.00;99.90;;;;;;4977366;28;20108;-86
2024/01/26 08:49:24;;;;;;;12.20;5.10;;;10.70;99.90;;;;;;5011465;28;20046;-83
2024/01/26 08:51:51;;;;;;;15.48;5.35;;;10.70;99.90;;;;;;4992926;28;20439;-84
2024/01/26 08:54:18;;;;;;;13.30;4.80;;;10.60;99.90;;;;;;4976249;28;20042;-83
2024/01/26 08:56:45;;;;;;;10.68;4.47;;;10.60;99.90;;;;;;5010599;28;20050;-84
2024/01/26 08:59:10;;;;;;;13.93;4.28;;;11.60;99.90;;;;;;5018566;28;20052;-85
2024/01/26 09:01:37;;;;;;;10.63;4.68;;;10.60;99.90;;;;;;5015697;28;20045;-85
2024/01/26 09:04:06;;;;;;;11.52;3.90;;;11.00;99.90;;;;;;5010778;28;20034;-84
2024/01/26 09:06:32;;;;;;;15.82;4.60;;;10.50;99.90;;;;;;5011000;28;20111;-82
2024/01/26 09:08:58;;;;;;;15.70;4.35;;;11.00;99.90;;;;;;5011984;28;20125;-87
2024/01/26 09:11:24;;;;;;;14.43;5.20;;;10.80;99.90;;;;;;5011741;28;20124;-90
2024/01/26 09:13:50;;;;;;;6.82;1.73;;;10.50;99.90;;;;;;4993318;28;20050;-84
2024/01/26 09:16:15;;;;;;;8.38;2.10;;;10.30;99.90;;;;;;4993530;28;20045;-86
2024/01/26 09:18:41;;;;;;;5.90;1.50;;;9.90;99.90;;;;;;5010475;28;20034;-84
2024/01/26 09:21:12;;;;;;;9.98;1.60;;;10.40;99.90;;;;;;5010494;28;20083;-83
2024/01/26 09:23:38;;;;;;;9.05;1.13;;;9.60;99.90;;;;;;4992876;28;20440;-85
2024/01/26 09:26:04;;;;;;;7.28;0.93;;;10.00;99.90;;;;;;5010970;28;20559;-82
2024/01/26 09:28:30;;;;;;;5.03;1.10;;;9.90;99.90;;;;;;5010333;28;20073;-84
2024/01/26 09:30:55;;;;;;;7.80;1.20;;;9.30;99.90;;;;;;4993880;28;20054;-82
2024/01/26 09:33:21;;;;;;;10.50;1.60;;;9.50;99.90;;;;;;4992578;28;20042;-83
2024/01/26 09:35:47;;;;;;;9.18;1.38;;;10.20;99.90;;;;;;5008002;28;20134;-84
2024/01/26 09:38:13;;;;;;;8.00;1.17;;;10.00;99.90;;;;;;5010023;28;20120;-82
2024/01/26 09:40:39;;;;;;;14.05;1.83;;;9.10;99.90;;;;;;5010566;28;20042;-82
2024/01/26 09:43:06;;;;;;;11.60;1.40;;;9.30;99.90;;;;;;5010342;28;20045;-83
2024/01/26 09:45:32;;;;;;;16.30;1.70;;;9.50;99.90;;;;;;4994590;28;20061;-84
2024/01/26 09:47:58;;;;;;;11.85;1.50;;;8.90;99.90;;;;;;5016992;28;20058;-84
2024/01/26 09:50:26;;;;;;;6.85;1.40;;;9.40;99.90;;;;;;4993115;28;20092;-83
2024/01/26 09:52:52;;;;;;;14.23;1.60;;;9.70;99.90;;;;;;5011656;28;20489;-83
2024/01/26 09:55:19;;;;;;;13.68;1.63;;;9.50;99.90;;;;;;5010129;28;20193;-81
2024/01/26 09:57:47;;;;;;;16.60;2.13;;;9.00;99.90;;;;;;5012434;28;20524;-82
2024/01/26 10:00:13;;;;;;;19.58;2.45;;;8.60;99.90;;;;;;5010018;28;20038;-84
2024/01/26 10:02:41;;;;;;;16.20;2.60;;;8.60;99.90;;;;;;4992565;28;20054;-82
2024/01/26 10:05:07;;;;;;;19.67;2.65;;;9.60;99.90;;;;;;5010298;28;20042;-84
2024/01/26 10:07:33;;;;;;;13.27;2.13;;;8.50;99.90;;;;;;5009730;28;20401;-84
2024/01/26 10:09:58;;;;;;;24.90;3.20;;;8.90;99.90;;;;;;5009819;28;20049;-84
2024/01/26 10:12:24;;;;;;;12.30;2.45;;;9.40;99.90;;;;;;5009984;28;20054;-83
2024/01/26 10:15:04;;;;;;;18.05;2.10;;;8.40;99.90;;;;;;5009292;28;20042;-83
2024/01/26 10:17:30;;;;;;;15.75;2.05;;;8.40;99.90;;;;;;5010785;28;20057;-83
2024/01/26 10:20:09;;;;;;;20.42;2.40;;;9.60;99.90;;;;;;5010280;28;20038;-83
2024/01/26 10:22:37;;;;;;;21.40;2.60;;;8.40;99.90;;;;;;5014515;28;20524;-84
2024/01/26 10:25:03;;;;;;;24.85;3.22;;;8.40;99.90;;;;;;5003326;28;20078;-84
2024/01/26 10:27:33;;;;;;;17.83;3.00;;;8.40;99.90;;;;;;5009814;28;20053;-84
2024/01/26 10:29:58;;;;;;;25.98;3.08;;;8.40;99.90;;;;;;5009866;28;20052;-84
2024/01/26 10:32:28;;;;;;;27.42;3.38;;;9.10;99.90;;;;;;4995432;28;20050;-84
2024/01/26 10:34:58;;;;;;;23.35;3.53;;;8.70;99.90;;;;;;5013988;28;20487;-84
2024/01/26 10:37:27;;;;;;;25.17;3.00;;;9.00;99.90;;;;;;5036764;28;20123;-85
2024/01/26 10:39:55;;;;;;;16.20;2.45;;;9.50;99.90;;;;;;5043244;28;20496;-84
2024/01/26 10:42:21;;;;;;;21.25;2.92;;;9.50;99.90;;;;;;5032825;28;20522;-84
2024/01/26 10:44:51;;;;;;;18.40;2.97;;;8.40;99.90;;;;;;5032900;28;20095;-83
2024/01/26 10:47:21;;;;;;;22.08;3.22;;;9.40;99.90;;;;;;5029202;28;20099;-82
2024/01/26 10:49:49;;;;;;;21.05;3.25;;;9.40;99.90;;;;;;5024879;28;20068;-84
2024/01/26 10:52:21;;;;;;;20.58;2.70;;;9.40;99.90;;;;;;5032718;28;20138;-84
2024/01/26 10:54:49;;;;;;;20.98;3.25;;;9.10;99.90;;;;;;5032641;28;20130;-85
2024/01/26 10:57:16;;;;;;;23.17;3.33;;;9.20;99.90;;;;;;5032562;28;20045;-83
2024/01/26 10:59:45;;;;;;;20.20;2.40;;;8.30;99.90;;;;;;5022562;28;20053;-84
2024/01/26 11:02:33;;;;;;;19.70;3.30;;;9.40;99.90;;;;;;5032919;28;20053;-83
2024/01/26 11:05:00;;;;;;;13.60;2.53;;;8.30;99.90;;;;;;5034020;28;20107;-83
2024/01/26 11:07:26;;;;;;;21.13;2.78;;;8.60;99.90;;;;;;5023431;28;20045;-83
2024/01/26 11:09:58;;;;;;;18.48;3.05;;;8.30;99.90;;;;;;5034490;28;20068;-85
2024/01/26 11:12:29;;;;;;;21.95;3.53;;;8.90;99.90;;;;;;5022671;28;20029;-84
2024/01/26 11:15:15;;;;;;;18.23;3.35;;;8.30;99.90;;;;;;5040024;28;20063;-82
2024/01/26 11:17:52;;;;;;;19.48;2.45;;;8.30;99.90;;;;;;5022154;28;20563;-83
2024/01/26 11:20:25;;;;;;;16.00;2.60;;;8.40;99.90;;;;;;5014726;28;20049;-84
2024/01/26 11:22:59;;;;;;;20.90;2.95;;;8.40;99.90;;;;;;5032535;28;20040;-84
2024/01/26 11:25:25;;;;;;;22.17;2.67;;;9.50;99.90;;;;;;5024818;28;20505;-83
2024/01/26 11:27:59;;;;;;;25.38;3.03;;;9.40;99.90;;;;;;5031854;28;20145;-84
2024/01/26 11:30:25;;;;;;;18.23;3.15;;;9.10;99.90;;;;;;5020586;28;20046;-83
2024/01/26 11:32:51;;;;;;;20.02;3.20;;;8.70;99.90;;;;;;5021881;28;20095;-83
2024/01/26 11:35:18;;;;;;;20.85;2.65;;;9.10;99.90;;;;;;5031059;28;20049;-84
2024/01/26 11:37:45;;;;;;;16.48;2.38;;;9.40;99.90;;;;;;5006064;28;20707;-85
2024/01/26 11:40:11;;;;;;;22.70;2.75;;;8.50;99.90;;;;;;5031948;28;20125;-83
2024/01/26 11:42:37;;;;;;;14.30;2.10;;;8.20;99.90;;;;;;5031467;28;20115;-85
2024/01/26 11:45:13;;;;;;;17.17;2.97;;;9.10;99.90;;;;;;5031851;28;20540;-85
2024/01/26 11:47:42;;;;;;;15.95;2.65;;;8.30;99.90;;;;;;5031571;28;20053;-85
2024/01/26 11:50:11;;;;;;;17.95;2.70;;;8.20;99.90;;;;;;5001567;28;20045;-85
2024/01/26 11:52:37;;;;;;;13.40;2.28;;;7.40;99.90;;;;;;5031240;28;20064;-85
2024/01/26 11:55:05;;;;;;;14.95;3.05;;;8.50;99.90;;;;;;5036467;28;20037;-86
2024/01/26 11:57:32;;;;;;;14.93;2.53;;;8.10;99.90;;;;;;5031456;28;20037;-84
2024/01/26 12:00:04;;;;;;;18.67;2.50;;;8.60;99.90;;;;;;5035722;28;20061;-85
2024/01/26 12:02:30;;;;;;;18.27;2.13;;;8.10;99.90;;;;;;5022155;28;20053;-85
2024/01/26 12:04:56;;;;;;;20.10;2.88;;;8.10;99.90;;;;;;5021634;28;20057;-85
2024/01/26 12:07:22;;;;;;;21.25;2.72;;;8.10;99.90;;;;;;5021091;28;20049;-86
2024/01/26 12:09:48;;;;;;;15.63;2.33;;;8.00;99.90;;;;;;5005552;28;20037;-85
2024/01/26 12:12:14;;;;;;;19.10;2.38;;;8.60;99.90;;;;;;5021402;28;20176;-86
2024/01/26 12:14:40;;;;;;;16.95;3.30;;;8.00;99.90;;;;;;5021336;28;20489;-85
2024/01/26 12:17:06;;;;;;;24.25;3.45;;;9.20;99.90;;;;;;5021218;28;20136;-85
2024/01/26 12:19:32;;;;;;;29.27;3.72;;;7.90;99.90;;;;;;5021070;28;20068;-85
2024/01/26 12:21:58;;;;;;;22.98;3.67;;;8.80;99.90;;;;;;5030396;28;20077;-85
2024/01/26 12:24:24;;;;;;;22.15;3.38;;;8.30;99.90;;;;;;5037536;28;20025;-86
2024/01/26 12:26:50;;;;;;;20.23;3.35;;;8.70;99.90;;;;;;5030944;28;20045;-86
2024/01/26 12:29:16;;;;;;;23.92;3.22;;;8.40;99.90;;;;;;5031155;28;20052;-86
2024/01/26 12:31:42;;;;;;;23.85;3.35;;;8.60;99.90;;;;;;5032360;28;20116;-86
2024/01/26 12:34:14;;;;;;;14.65;2.75;;;8.70;99.90;;;;;;5020859;28;20053;-86